N36BG MBPV-TJBQ
Flight info
| Callsign | N36BG |
|---|---|
| Flight time | 2h 37m |
| Altitude | 7500 |
| Route | 215549N0720049W 214129N0712915W 211943N0711230W 195027N0704753W 193419N0695747W 191707N0691324W 183828N0682239W |
| Aircraft | BT36/L-BDFGLORY/S |
Departure
| Time | 2026-04-23 11:43 |
|---|---|
| Airport | Providenciales International Airport (MBPV) |
Arrival
| Time | 2026-04-23 14:21 |
|---|---|
| Airport | Rafael Hernández International Airport (TJBQ) |
| Time | Latitude | Longitude | Altitude | Speed | Heading |
|---|---|---|---|---|---|
| 2026-04-23 11:34 | 21.77562 | -72.26981 | 18 ft | 0 kts | 24° |
| 2026-04-23 11:39 | 21.77576 | -72.26999 | 22 ft | 9 kts | 228° |
| 2026-04-23 11:40 | 21.77524 | -72.27083 | 23 ft | 18 kts | 252° |
| 2026-04-23 11:40 | 21.77513 | -72.27183 | 24 ft | 16 kts | 272° |
| 2026-04-23 11:40 | 21.77513 | -72.27374 | 25 ft | 24 kts | 275° |
| 2026-04-23 11:40 | 21.77428 | -72.27481 | 27 ft | 24 kts | 239° |
| 2026-04-23 11:41 | 21.77420 | -72.27677 | 28 ft | 29 kts | 274° |
| 2026-04-23 11:41 | 21.77441 | -72.27908 | 29 ft | 33 kts | 275° |
| 2026-04-23 11:41 | 21.77470 | -72.28142 | 30 ft | 28 kts | 285° |
| 2026-04-23 11:41 | 21.77438 | -72.28208 | 31 ft | 13 kts | 126° |
| 2026-04-23 11:42 | 21.77433 | -72.28181 | 30 ft | 0 kts | 93° |
| 2026-04-23 11:42 | 21.77430 | -72.28137 | 30 ft | 31 kts | 91° |
| 2026-04-23 11:42 | 21.77412 | -72.27669 | 33 ft | 86 kts | 92° |
| 2026-04-23 11:43 | 21.77383 | -72.26985 | 267 ft | 98 kts | 90° |
| 2026-04-23 11:43 | 21.77321 | -72.26141 | 301 ft | 127 kts | 91° |
| 2026-04-23 11:43 | 21.77271 | -72.25217 | 722 ft | 112 kts | 90° |
| 2026-04-23 11:43 | 21.77224 | -72.24479 | 1274 ft | 90 kts | 88° |
| 2026-04-23 11:44 | 21.77445 | -72.23898 | 1654 ft | 90 kts | 46° |
| 2026-04-23 11:44 | 21.77897 | -72.23434 | 2021 ft | 90 kts | 50° |
| 2026-04-23 11:44 | 21.78334 | -72.22940 | 2369 ft | 91 kts | 50° |
| 2026-04-23 11:44 | 21.78768 | -72.22436 | 2698 ft | 93 kts | 51° |
| 2026-04-23 11:45 | 21.79217 | -72.21926 | 2992 ft | 95 kts | 51° |
| 2026-04-23 11:45 | 21.79654 | -72.21427 | 3279 ft | 97 kts | 50° |
| 2026-04-23 11:45 | 21.80116 | -72.20896 | 3583 ft | 97 kts | 51° |
| 2026-04-23 11:45 | 21.80585 | -72.20355 | 3875 ft | 100 kts | 51° |
| 2026-04-23 11:46 | 21.81056 | -72.19796 | 4168 ft | 102 kts | 51° |
| 2026-04-23 11:46 | 21.81540 | -72.19220 | 4431 ft | 106 kts | 46° |
| 2026-04-23 11:46 | 21.82242 | -72.18945 | 4687 ft | 111 kts | 15° |
| 2026-04-23 11:46 | 21.82923 | -72.18580 | 4930 ft | 111 kts | 48° |
| 2026-04-23 11:47 | 21.83356 | -72.17886 | 5177 ft | 113 kts | 58° |
| 2026-04-23 11:47 | 21.83797 | -72.17180 | 5419 ft | 114 kts | 56° |
| 2026-04-23 11:47 | 21.84243 | -72.16462 | 5655 ft | 116 kts | 56° |
| 2026-04-23 11:47 | 21.84687 | -72.15727 | 5890 ft | 118 kts | 57° |
| 2026-04-23 11:48 | 21.85130 | -72.14978 | 6110 ft | 120 kts | 57° |
| 2026-04-23 11:48 | 21.85570 | -72.14224 | 6312 ft | 121 kts | 57° |
| 2026-04-23 11:48 | 21.86022 | -72.13449 | 6500 ft | 123 kts | 57° |
| 2026-04-23 11:48 | 21.86480 | -72.12662 | 6676 ft | 124 kts | 56° |
| 2026-04-23 11:49 | 21.86940 | -72.11869 | 6847 ft | 125 kts | 56° |
| 2026-04-23 11:49 | 21.87402 | -72.11073 | 7003 ft | 126 kts | 55° |
| 2026-04-23 11:49 | 21.87870 | -72.10266 | 7155 ft | 128 kts | 55° |
| 2026-04-23 11:49 | 21.88342 | -72.09452 | 7295 ft | 129 kts | 54° |
| 2026-04-23 11:50 | 21.88817 | -72.08633 | 7440 ft | 130 kts | 54° |
| 2026-04-23 11:50 | 21.89305 | -72.07794 | 7501 ft | 137 kts | 54° |
| 2026-04-23 11:50 | 21.89830 | -72.06887 | 7510 ft | 146 kts | 55° |
| 2026-04-23 11:50 | 21.90377 | -72.05942 | 7512 ft | 152 kts | 55° |
| 2026-04-23 11:51 | 21.90944 | -72.04962 | 7515 ft | 157 kts | 55° |
| 2026-04-23 11:51 | 21.91527 | -72.03954 | 7515 ft | 160 kts | 55° |
| 2026-04-23 11:51 | 21.92121 | -72.02930 | 7517 ft | 163 kts | 55° |
| 2026-04-23 11:51 | 21.92501 | -72.02229 | 7517 ft | 165 kts | 62° |
| 2026-04-23 11:52 | 21.92629 | -72.00597 | 7518 ft | 167 kts | 103° |
| 2026-04-23 11:52 | 21.92170 | -71.99463 | 7517 ft | 165 kts | 121° |
| 2026-04-23 11:52 | 21.91634 | -71.98369 | 7517 ft | 166 kts | 118° |
| 2026-04-23 11:52 | 21.91145 | -71.97250 | 7515 ft | 165 kts | 116° |
| 2026-04-23 11:53 | 21.90657 | -71.96132 | 7517 ft | 165 kts | 117° |
| 2026-04-23 11:53 | 21.90161 | -71.95021 | 7518 ft | 165 kts | 117° |
| 2026-04-23 11:53 | 21.89659 | -71.93909 | 7519 ft | 165 kts | 118° |
| 2026-04-23 11:53 | 21.89160 | -71.92808 | 7520 ft | 165 kts | 118° |
| 2026-04-23 11:54 | 21.88661 | -71.91707 | 7523 ft | 166 kts | 118° |
| 2026-04-23 11:54 | 21.88148 | -71.90573 | 7519 ft | 166 kts | 118° |
| 2026-04-23 11:54 | 21.87650 | -71.89474 | 7518 ft | 165 kts | 118° |
| 2026-04-23 11:54 | 21.87149 | -71.88368 | 7517 ft | 164 kts | 118° |
| 2026-04-23 11:55 | 21.86648 | -71.87262 | 7520 ft | 165 kts | 118° |
| 2026-04-23 11:55 | 21.86148 | -71.86156 | 7516 ft | 164 kts | 118° |
| 2026-04-23 11:55 | 21.85648 | -71.85050 | 7519 ft | 165 kts | 118° |
| 2026-04-23 11:55 | 21.85144 | -71.83943 | 7518 ft | 165 kts | 118° |
| 2026-04-23 11:56 | 21.84641 | -71.82833 | 7523 ft | 165 kts | 118° |
| 2026-04-23 11:56 | 21.84137 | -71.81721 | 7521 ft | 166 kts | 118° |
| 2026-04-23 11:56 | 21.83631 | -71.80606 | 7517 ft | 166 kts | 118° |
| 2026-04-23 11:56 | 21.83126 | -71.79494 | 7518 ft | 166 kts | 117° |
| 2026-04-23 11:57 | 21.82621 | -71.78380 | 7519 ft | 166 kts | 117° |
| 2026-04-23 11:57 | 21.82116 | -71.77266 | 7520 ft | 166 kts | 117° |
| 2026-04-23 11:57 | 21.81610 | -71.76150 | 7523 ft | 166 kts | 118° |
| 2026-04-23 11:57 | 21.81101 | -71.75028 | 7522 ft | 167 kts | 118° |
| 2026-04-23 11:58 | 21.80591 | -71.73903 | 7517 ft | 167 kts | 118° |
| 2026-04-23 11:58 | 21.80079 | -71.72780 | 7521 ft | 167 kts | 118° |
| 2026-04-23 11:58 | 21.79741 | -71.72037 | 7516 ft | 167 kts | 118° |
| 2026-04-23 11:58 | 21.79060 | -71.70537 | 7516 ft | 167 kts | 118° |
| 2026-04-23 11:59 | 21.78724 | -71.69795 | 7518 ft | 167 kts | 118° |
| 2026-04-23 11:59 | 21.78214 | -71.68674 | 7521 ft | 167 kts | 118° |
| 2026-04-23 11:59 | 21.77705 | -71.67556 | 7515 ft | 166 kts | 118° |
| 2026-04-23 11:59 | 21.77198 | -71.66439 | 7517 ft | 166 kts | 118° |
| 2026-04-23 12:00 | 21.76685 | -71.65316 | 7523 ft | 168 kts | 118° |
| 2026-04-23 12:00 | 21.76174 | -71.64187 | 7517 ft | 168 kts | 118° |
| 2026-04-23 12:00 | 21.75663 | -71.63065 | 7517 ft | 167 kts | 118° |
| 2026-04-23 12:00 | 21.74987 | -71.61582 | 7514 ft | 166 kts | 118° |
| 2026-04-23 12:01 | 21.74645 | -71.60831 | 7519 ft | 166 kts | 118° |
| 2026-04-23 12:01 | 21.74136 | -71.59717 | 7519 ft | 166 kts | 118° |
| 2026-04-23 12:01 | 21.73628 | -71.58598 | 7519 ft | 167 kts | 118° |
| 2026-04-23 12:01 | 21.73124 | -71.57490 | 7519 ft | 168 kts | 118° |
| 2026-04-23 12:02 | 21.72433 | -71.55977 | 7518 ft | 169 kts | 118° |
| 2026-04-23 12:02 | 21.72092 | -71.55226 | 7520 ft | 169 kts | 118° |
| 2026-04-23 12:02 | 21.71575 | -71.54091 | 7516 ft | 169 kts | 118° |
| 2026-04-23 12:02 | 21.71057 | -71.52956 | 7516 ft | 169 kts | 118° |
| 2026-04-23 12:03 | 21.70541 | -71.51825 | 7513 ft | 168 kts | 118° |
| 2026-04-23 12:03 | 21.70031 | -71.50703 | 7515 ft | 167 kts | 118° |
| 2026-04-23 12:03 | 21.69521 | -71.49586 | 7517 ft | 166 kts | 118° |
| 2026-04-23 12:03 | 21.68900 | -71.48562 | 7512 ft | 162 kts | 141° |
| 2026-04-23 12:04 | 21.67989 | -71.47879 | 7514 ft | 159 kts | 150° |
| 2026-04-23 12:04 | 21.67075 | -71.47196 | 7515 ft | 160 kts | 147° |
| 2026-04-23 12:04 | 21.66177 | -71.46484 | 7516 ft | 161 kts | 147° |
| 2026-04-23 12:04 | 21.65272 | -71.45772 | 7515 ft | 161 kts | 147° |
| 2026-04-23 12:05 | 21.64364 | -71.45067 | 7510 ft | 161 kts | 148° |
| 2026-04-23 12:05 | 21.63459 | -71.44367 | 7513 ft | 160 kts | 148° |
| 2026-04-23 12:05 | 21.62551 | -71.43668 | 7512 ft | 161 kts | 147° |
| 2026-04-23 12:05 | 21.61642 | -71.42969 | 7512 ft | 160 kts | 147° |
| 2026-04-23 12:06 | 21.60738 | -71.42272 | 7511 ft | 160 kts | 147° |
| 2026-04-23 12:06 | 21.59833 | -71.41573 | 7509 ft | 160 kts | 147° |
| 2026-04-23 12:06 | 21.58023 | -71.40179 | 7512 ft | 160 kts | 147° |
| 2026-04-23 12:07 | 21.57122 | -71.39485 | 7512 ft | 160 kts | 147° |
| 2026-04-23 12:07 | 21.56220 | -71.38791 | 7509 ft | 159 kts | 147° |
| 2026-04-23 12:07 | 21.55319 | -71.38097 | 7506 ft | 159 kts | 147° |
| 2026-04-23 12:07 | 21.54418 | -71.37403 | 7504 ft | 159 kts | 147° |
| 2026-04-23 12:08 | 21.53522 | -71.36712 | 7506 ft | 159 kts | 147° |
| 2026-04-23 12:08 | 21.52622 | -71.36020 | 7505 ft | 159 kts | 147° |
| 2026-04-23 12:08 | 21.51723 | -71.35328 | 7509 ft | 159 kts | 147° |
| 2026-04-23 12:08 | 21.50823 | -71.34635 | 7511 ft | 159 kts | 147° |
| 2026-04-23 12:09 | 21.49925 | -71.33943 | 7509 ft | 159 kts | 147° |
| 2026-04-23 12:09 | 21.49036 | -71.33261 | 7506 ft | 159 kts | 147° |
| 2026-04-23 12:09 | 21.48139 | -71.32570 | 7508 ft | 159 kts | 147° |
| 2026-04-23 12:09 | 21.47240 | -71.31879 | 7506 ft | 158 kts | 147° |
| 2026-04-23 12:10 | 21.46348 | -71.31192 | 7506 ft | 158 kts | 147° |
| 2026-04-23 12:10 | 21.45454 | -71.30505 | 7505 ft | 158 kts | 147° |
| 2026-04-23 12:10 | 21.44563 | -71.29820 | 7505 ft | 158 kts | 147° |
| 2026-04-23 12:10 | 21.43648 | -71.29119 | 7347 ft | 167 kts | 147° |
| 2026-04-23 12:11 | 21.42699 | -71.28394 | 7103 ft | 168 kts | 146° |
| 2026-04-23 12:11 | 21.41738 | -71.27653 | 6821 ft | 171 kts | 145° |
| 2026-04-23 12:11 | 21.40775 | -71.26912 | 6541 ft | 169 kts | 144° |
| 2026-04-23 12:11 | 21.39834 | -71.26188 | 6245 ft | 164 kts | 144° |
| 2026-04-23 12:12 | 21.38913 | -71.25479 | 5942 ft | 161 kts | 144° |
| 2026-04-23 12:12 | 21.38006 | -71.24784 | 5647 ft | 159 kts | 143° |
| 2026-04-23 12:12 | 21.37108 | -71.24094 | 5355 ft | 158 kts | 143° |
| 2026-04-23 12:12 | 21.36219 | -71.23412 | 5063 ft | 157 kts | 142° |
| 2026-04-23 12:13 | 21.35337 | -71.22735 | 4767 ft | 155 kts | 142° |
| 2026-04-23 12:13 | 21.34465 | -71.22065 | 4466 ft | 153 kts | 141° |
| 2026-04-23 12:13 | 21.33598 | -71.21400 | 4168 ft | 153 kts | 140° |
| 2026-04-23 12:13 | 21.32711 | -71.20792 | 3876 ft | 156 kts | 150° |
| 2026-04-23 12:14 | 21.31649 | -71.20494 | 3586 ft | 159 kts | 163° |
| 2026-04-23 12:14 | 21.30595 | -71.20238 | 3504 ft | 150 kts | 159° |
| 2026-04-23 12:14 | 21.29586 | -71.19943 | 3503 ft | 151 kts | 159° |
| 2026-04-23 12:14 | 21.28578 | -71.19646 | 3502 ft | 149 kts | 159° |
| 2026-04-23 12:15 | 21.27584 | -71.19366 | 3502 ft | 146 kts | 159° |
| 2026-04-23 12:15 | 21.26607 | -71.19094 | 3503 ft | 145 kts | 159° |
| 2026-04-23 12:15 | 21.25629 | -71.18820 | 3496 ft | 147 kts | 159° |
| 2026-04-23 12:15 | 21.24635 | -71.18542 | 3500 ft | 148 kts | 159° |
| 2026-04-23 12:16 | 21.23626 | -71.18263 | 3499 ft | 151 kts | 159° |
| 2026-04-23 12:16 | 21.22602 | -71.17978 | 3499 ft | 153 kts | 159° |
| 2026-04-23 12:16 | 21.21569 | -71.17693 | 3502 ft | 154 kts | 159° |
| 2026-04-23 12:16 | 21.20532 | -71.17402 | 3503 ft | 154 kts | 159° |
| 2026-04-23 12:17 | 21.19494 | -71.17112 | 3504 ft | 155 kts | 159° |
| 2026-04-23 12:17 | 21.18444 | -71.16821 | 3501 ft | 157 kts | 159° |
| 2026-04-23 12:17 | 21.17383 | -71.16527 | 3503 ft | 158 kts | 159° |
| 2026-04-23 12:17 | 21.16321 | -71.16231 | 3505 ft | 158 kts | 159° |
| 2026-04-23 12:18 | 21.15256 | -71.15935 | 3500 ft | 158 kts | 160° |
| 2026-04-23 12:18 | 21.14201 | -71.15642 | 3502 ft | 156 kts | 159° |
| 2026-04-23 12:18 | 21.13155 | -71.15352 | 3503 ft | 155 kts | 159° |
| 2026-04-23 12:18 | 21.12110 | -71.15063 | 3502 ft | 155 kts | 159° |
| 2026-04-23 12:19 | 21.11199 | -71.14811 | 3503 ft | 156 kts | 158° |
| 2026-04-23 12:19 | 21.10250 | -71.14546 | 3501 ft | 157 kts | 159° |
| 2026-04-23 12:19 | 21.09195 | -71.14250 | 3500 ft | 157 kts | 159° |
| 2026-04-23 12:19 | 21.08152 | -71.13962 | 3497 ft | 156 kts | 159° |
| 2026-04-23 12:20 | 21.07099 | -71.13671 | 3498 ft | 157 kts | 159° |
| 2026-04-23 12:20 | 21.06041 | -71.13376 | 3501 ft | 158 kts | 159° |
| 2026-04-23 12:20 | 21.04976 | -71.13080 | 3500 ft | 158 kts | 159° |
| 2026-04-23 12:20 | 21.03913 | -71.12786 | 3504 ft | 158 kts | 158° |
| 2026-04-23 12:21 | 21.02845 | -71.12489 | 3500 ft | 159 kts | 159° |
| 2026-04-23 12:21 | 21.01779 | -71.12192 | 3498 ft | 158 kts | 159° |
| 2026-04-23 12:21 | 21.00724 | -71.11901 | 3499 ft | 156 kts | 159° |
| 2026-04-23 12:21 | 20.99674 | -71.11610 | 3498 ft | 156 kts | 158° |
| 2026-04-23 12:22 | 20.98625 | -71.11319 | 3499 ft | 155 kts | 159° |
| 2026-04-23 12:22 | 20.97580 | -71.11030 | 3496 ft | 155 kts | 159° |
| 2026-04-23 12:22 | 20.96535 | -71.10740 | 3498 ft | 155 kts | 159° |
| 2026-04-23 12:22 | 20.95492 | -71.10450 | 3497 ft | 154 kts | 159° |
| 2026-04-23 12:23 | 20.94456 | -71.10165 | 3500 ft | 153 kts | 159° |
| 2026-04-23 12:23 | 20.93423 | -71.09878 | 3501 ft | 153 kts | 158° |
| 2026-04-23 12:23 | 20.92392 | -71.09592 | 3503 ft | 154 kts | 159° |
| 2026-04-23 12:23 | 20.91353 | -71.09301 | 3500 ft | 155 kts | 159° |
| 2026-04-23 12:24 | 20.90307 | -71.09012 | 3499 ft | 155 kts | 159° |
| 2026-04-23 12:24 | 20.89256 | -71.08724 | 3493 ft | 156 kts | 158° |
| 2026-04-23 12:24 | 20.88205 | -71.08434 | 3496 ft | 156 kts | 158° |
| 2026-04-23 12:24 | 20.87161 | -71.08142 | 3495 ft | 155 kts | 159° |
| 2026-04-23 12:25 | 20.86120 | -71.07852 | 3495 ft | 155 kts | 159° |
| 2026-04-23 12:25 | 20.85076 | -71.07566 | 3495 ft | 155 kts | 159° |
| 2026-04-23 12:25 | 20.84035 | -71.07279 | 3495 ft | 154 kts | 159° |
| 2026-04-23 12:25 | 20.82993 | -71.06988 | 3500 ft | 155 kts | 159° |
| 2026-04-23 12:26 | 20.81943 | -71.06698 | 3501 ft | 156 kts | 160° |
| 2026-04-23 12:26 | 20.80895 | -71.06407 | 3494 ft | 155 kts | 159° |
| 2026-04-23 12:26 | 20.79852 | -71.06119 | 3495 ft | 155 kts | 159° |
| 2026-04-23 12:26 | 20.78821 | -71.05837 | 3496 ft | 155 kts | 159° |
| 2026-04-23 12:27 | 20.77761 | -71.05544 | 3494 ft | 155 kts | 159° |
| 2026-04-23 12:27 | 20.76728 | -71.05257 | 3496 ft | 155 kts | 159° |
| 2026-04-23 12:27 | 20.75681 | -71.04966 | 3499 ft | 156 kts | 159° |
| 2026-04-23 12:27 | 20.74632 | -71.04676 | 3501 ft | 156 kts | 160° |
| 2026-04-23 12:28 | 20.73587 | -71.04389 | 3498 ft | 155 kts | 159° |
| 2026-04-23 12:28 | 20.72543 | -71.04102 | 3498 ft | 154 kts | 159° |
| 2026-04-23 12:28 | 20.71504 | -71.03816 | 3495 ft | 154 kts | 159° |
| 2026-04-23 12:28 | 20.70465 | -71.03525 | 3495 ft | 154 kts | 159° |
| 2026-04-23 12:29 | 20.69428 | -71.03239 | 3492 ft | 154 kts | 159° |
| 2026-04-23 12:29 | 20.68395 | -71.02957 | 3497 ft | 153 kts | 159° |
| 2026-04-23 12:29 | 20.67362 | -71.02669 | 3495 ft | 154 kts | 159° |
| 2026-04-23 12:29 | 20.66324 | -71.02381 | 3491 ft | 154 kts | 159° |
| 2026-04-23 12:30 | 20.65289 | -71.02099 | 3494 ft | 153 kts | 159° |
| 2026-04-23 12:30 | 20.64260 | -71.01816 | 3495 ft | 153 kts | 159° |
| 2026-04-23 12:30 | 20.63231 | -71.01530 | 3491 ft | 153 kts | 158° |
| 2026-04-23 12:30 | 20.62204 | -71.01248 | 3491 ft | 152 kts | 158° |
| 2026-04-23 12:31 | 20.61187 | -71.00967 | 3489 ft | 150 kts | 158° |
| 2026-04-23 12:31 | 20.60178 | -71.00686 | 3495 ft | 150 kts | 158° |
| 2026-04-23 12:31 | 20.59157 | -71.00404 | 3499 ft | 154 kts | 158° |
| 2026-04-23 12:31 | 20.58103 | -71.00112 | 3494 ft | 158 kts | 159° |
| 2026-04-23 12:32 | 20.57041 | -70.99822 | 3487 ft | 155 kts | 158° |
| 2026-04-23 12:32 | 20.56006 | -70.99539 | 3484 ft | 152 kts | 158° |
| 2026-04-23 12:32 | 20.54991 | -70.99258 | 3485 ft | 150 kts | 159° |
| 2026-04-23 12:32 | 20.53979 | -70.98977 | 3491 ft | 150 kts | 158° |
| 2026-04-23 12:33 | 20.52954 | -70.98696 | 3499 ft | 155 kts | 158° |
| 2026-04-23 12:33 | 20.51894 | -70.98401 | 3497 ft | 159 kts | 159° |
| 2026-04-23 12:33 | 20.50817 | -70.98101 | 3496 ft | 160 kts | 159° |
| 2026-04-23 12:33 | 20.49741 | -70.97807 | 3488 ft | 158 kts | 159° |
| 2026-04-23 12:34 | 20.48687 | -70.97525 | 3487 ft | 154 kts | 158° |
| 2026-04-23 12:34 | 20.47655 | -70.97242 | 3485 ft | 152 kts | 158° |
| 2026-04-23 12:34 | 20.46629 | -70.96953 | 3490 ft | 152 kts | 158° |
| 2026-04-23 12:34 | 20.45603 | -70.96669 | 3487 ft | 152 kts | 158° |
| 2026-04-23 12:35 | 20.44579 | -70.96389 | 3482 ft | 151 kts | 159° |
| 2026-04-23 12:35 | 20.43561 | -70.96110 | 3485 ft | 151 kts | 159° |
| 2026-04-23 12:35 | 20.42550 | -70.95829 | 3484 ft | 150 kts | 159° |
| 2026-04-23 12:35 | 20.41538 | -70.95552 | 3485 ft | 150 kts | 159° |
| 2026-04-23 12:36 | 20.40524 | -70.95274 | 3486 ft | 151 kts | 158° |
| 2026-04-23 12:36 | 20.39517 | -70.94998 | 3489 ft | 151 kts | 159° |
| 2026-04-23 12:36 | 20.38498 | -70.94715 | 3487 ft | 151 kts | 159° |
| 2026-04-23 12:36 | 20.37478 | -70.94434 | 3489 ft | 151 kts | 159° |
| 2026-04-23 12:37 | 20.36456 | -70.94155 | 3488 ft | 152 kts | 159° |
| 2026-04-23 12:37 | 20.35434 | -70.93875 | 3482 ft | 152 kts | 159° |
| 2026-04-23 12:37 | 20.34415 | -70.93592 | 3484 ft | 151 kts | 159° |
| 2026-04-23 12:37 | 20.33396 | -70.93311 | 3486 ft | 152 kts | 160° |
| 2026-04-23 12:38 | 20.32373 | -70.93033 | 3484 ft | 152 kts | 159° |
| 2026-04-23 12:38 | 20.31353 | -70.92753 | 3483 ft | 151 kts | 159° |
| 2026-04-23 12:38 | 20.30337 | -70.92473 | 3482 ft | 150 kts | 160° |
| 2026-04-23 12:38 | 20.29325 | -70.92196 | 3483 ft | 150 kts | 159° |
| 2026-04-23 12:39 | 20.28313 | -70.91919 | 3484 ft | 150 kts | 159° |
| 2026-04-23 12:39 | 20.27301 | -70.91641 | 3481 ft | 150 kts | 160° |
| 2026-04-23 12:39 | 20.26286 | -70.91359 | 3485 ft | 151 kts | 160° |
| 2026-04-23 12:39 | 20.25271 | -70.91080 | 3485 ft | 151 kts | 159° |
| 2026-04-23 12:40 | 20.24251 | -70.90801 | 3484 ft | 151 kts | 159° |
| 2026-04-23 12:40 | 20.23233 | -70.90525 | 3484 ft | 151 kts | 159° |
| 2026-04-23 12:40 | 20.22216 | -70.90246 | 3484 ft | 151 kts | 160° |
| 2026-04-23 12:40 | 20.21206 | -70.89965 | 3482 ft | 150 kts | 159° |
| 2026-04-23 12:41 | 20.20201 | -70.89688 | 3479 ft | 149 kts | 159° |
| 2026-04-23 12:41 | 20.19195 | -70.89415 | 3484 ft | 150 kts | 159° |
| 2026-04-23 12:41 | 20.18176 | -70.89137 | 3494 ft | 153 kts | 160° |
| 2026-04-23 12:41 | 20.17127 | -70.88844 | 3495 ft | 158 kts | 160° |
| 2026-04-23 12:42 | 20.16050 | -70.88548 | 3494 ft | 162 kts | 160° |
| 2026-04-23 12:42 | 20.14946 | -70.88250 | 3495 ft | 165 kts | 160° |
| 2026-04-23 12:42 | 20.13823 | -70.87942 | 3496 ft | 168 kts | 160° |
| 2026-04-23 12:42 | 20.12686 | -70.87631 | 3495 ft | 169 kts | 160° |
| 2026-04-23 12:43 | 20.11549 | -70.87318 | 3486 ft | 169 kts | 160° |
| 2026-04-23 12:43 | 20.10430 | -70.87014 | 3482 ft | 163 kts | 160° |
| 2026-04-23 12:43 | 20.09351 | -70.86719 | 3478 ft | 158 kts | 160° |
| 2026-04-23 12:43 | 20.08300 | -70.86428 | 3477 ft | 154 kts | 160° |
| 2026-04-23 12:44 | 20.07267 | -70.86146 | 3479 ft | 152 kts | 159° |
| 2026-04-23 12:44 | 20.06244 | -70.85869 | 3480 ft | 151 kts | 159° |
| 2026-04-23 12:44 | 20.05232 | -70.85591 | 3480 ft | 150 kts | 160° |
| 2026-04-23 12:44 | 20.04228 | -70.85313 | 3477 ft | 149 kts | 160° |
| 2026-04-23 12:45 | 20.03220 | -70.85036 | 3477 ft | 150 kts | 160° |
| 2026-04-23 12:45 | 20.02211 | -70.84761 | 3479 ft | 150 kts | 160° |
| 2026-04-23 12:45 | 20.01197 | -70.84484 | 3485 ft | 152 kts | 160° |
| 2026-04-23 12:45 | 20.00173 | -70.84203 | 3484 ft | 152 kts | 160° |
| 2026-04-23 12:46 | 19.99144 | -70.83921 | 3479 ft | 153 kts | 160° |
| 2026-04-23 12:46 | 19.98113 | -70.83641 | 3477 ft | 153 kts | 160° |
| 2026-04-23 12:46 | 19.97077 | -70.83357 | 3479 ft | 154 kts | 160° |
| 2026-04-23 12:46 | 19.96045 | -70.83075 | 3477 ft | 153 kts | 160° |
| 2026-04-23 12:47 | 19.95023 | -70.82796 | 3476 ft | 151 kts | 160° |
| 2026-04-23 12:47 | 19.94003 | -70.82514 | 3474 ft | 152 kts | 160° |
| 2026-04-23 12:47 | 19.93327 | -70.82331 | 3476 ft | 151 kts | 159° |
| 2026-04-23 12:47 | 19.91960 | -70.81960 | 3477 ft | 153 kts | 161° |
| 2026-04-23 12:48 | 19.91277 | -70.81770 | 3479 ft | 154 kts | 160° |
| 2026-04-23 12:48 | 19.90238 | -70.81487 | 3482 ft | 155 kts | 160° |
| 2026-04-23 12:48 | 19.88838 | -70.81101 | 3476 ft | 157 kts | 161° |
| 2026-04-23 12:48 | 19.87791 | -70.80815 | 3474 ft | 155 kts | 161° |
| 2026-04-23 12:49 | 19.87089 | -70.80625 | 3471 ft | 153 kts | 161° |
| 2026-04-23 12:49 | 19.86054 | -70.80343 | 3471 ft | 154 kts | 162° |
| 2026-04-23 12:49 | 19.85030 | -70.80038 | 3472 ft | 151 kts | 154° |
| 2026-04-23 12:49 | 19.84185 | -70.79406 | 3474 ft | 149 kts | 131° |
| 2026-04-23 12:50 | 19.83635 | -70.78485 | 3474 ft | 148 kts | 109° |
| 2026-04-23 12:50 | 19.83330 | -70.77439 | 3472 ft | 148 kts | 106° |
| 2026-04-23 12:50 | 19.83013 | -70.76400 | 3467 ft | 147 kts | 107° |
| 2026-04-23 12:50 | 19.82681 | -70.75375 | 3464 ft | 146 kts | 108° |
| 2026-04-23 12:51 | 19.82347 | -70.74355 | 3469 ft | 146 kts | 108° |
| 2026-04-23 12:51 | 19.82016 | -70.73327 | 3469 ft | 147 kts | 108° |
| 2026-04-23 12:51 | 19.81684 | -70.72293 | 3467 ft | 149 kts | 108° |
| 2026-04-23 12:51 | 19.81350 | -70.71259 | 3461 ft | 147 kts | 107° |
| 2026-04-23 12:52 | 19.81020 | -70.70227 | 3462 ft | 147 kts | 108° |
| 2026-04-23 12:52 | 19.80693 | -70.69194 | 3463 ft | 148 kts | 108° |
| 2026-04-23 12:52 | 19.80368 | -70.68176 | 3459 ft | 148 kts | 108° |
| 2026-04-23 12:52 | 19.80031 | -70.67130 | 3455 ft | 147 kts | 108° |
| 2026-04-23 12:53 | 19.79707 | -70.66117 | 3455 ft | 147 kts | 108° |
| 2026-04-23 12:53 | 19.79379 | -70.65084 | 3458 ft | 148 kts | 108° |
| 2026-04-23 12:53 | 19.79045 | -70.64049 | 3454 ft | 148 kts | 108° |
| 2026-04-23 12:53 | 19.78713 | -70.63011 | 3453 ft | 148 kts | 108° |
| 2026-04-23 12:54 | 19.78380 | -70.61974 | 3457 ft | 149 kts | 108° |
| 2026-04-23 12:54 | 19.78047 | -70.60934 | 3456 ft | 149 kts | 108° |
| 2026-04-23 12:54 | 19.77711 | -70.59886 | 3456 ft | 151 kts | 108° |
| 2026-04-23 12:54 | 19.77374 | -70.58832 | 3457 ft | 151 kts | 108° |
| 2026-04-23 12:55 | 19.77036 | -70.57777 | 3457 ft | 151 kts | 108° |
| 2026-04-23 12:55 | 19.76696 | -70.56722 | 3457 ft | 151 kts | 108° |
| 2026-04-23 12:55 | 19.76358 | -70.55666 | 3458 ft | 151 kts | 108° |
| 2026-04-23 12:55 | 19.76020 | -70.54611 | 3456 ft | 151 kts | 107° |
| 2026-04-23 12:56 | 19.75680 | -70.53556 | 3459 ft | 151 kts | 108° |
| 2026-04-23 12:56 | 19.75342 | -70.52497 | 3460 ft | 151 kts | 108° |
| 2026-04-23 12:56 | 19.75000 | -70.51434 | 3467 ft | 154 kts | 108° |
| 2026-04-23 12:56 | 19.74653 | -70.50347 | 3460 ft | 157 kts | 108° |
| 2026-04-23 12:57 | 19.74298 | -70.49249 | 3456 ft | 157 kts | 108° |
| 2026-04-23 12:57 | 19.73949 | -70.48160 | 3458 ft | 154 kts | 108° |
| 2026-04-23 12:57 | 19.73605 | -70.47092 | 3454 ft | 152 kts | 108° |
| 2026-04-23 12:57 | 19.73264 | -70.46031 | 3454 ft | 151 kts | 108° |
| 2026-04-23 12:58 | 19.72928 | -70.44984 | 3485 ft | 149 kts | 108° |
| 2026-04-23 12:58 | 19.72593 | -70.43942 | 3487 ft | 150 kts | 108° |
| 2026-04-23 12:58 | 19.72255 | -70.42896 | 3489 ft | 149 kts | 108° |
| 2026-04-23 12:58 | 19.71920 | -70.41848 | 3488 ft | 150 kts | 108° |
| 2026-04-23 12:59 | 19.71581 | -70.40800 | 3489 ft | 150 kts | 108° |
| 2026-04-23 12:59 | 19.71241 | -70.39745 | 3489 ft | 152 kts | 108° |
| 2026-04-23 12:59 | 19.70900 | -70.38687 | 3489 ft | 152 kts | 108° |
| 2026-04-23 12:59 | 19.70559 | -70.37626 | 3491 ft | 152 kts | 108° |
| 2026-04-23 13:00 | 19.70216 | -70.36561 | 3493 ft | 153 kts | 108° |
| 2026-04-23 13:00 | 19.69872 | -70.35490 | 3488 ft | 154 kts | 108° |
| 2026-04-23 13:00 | 19.69526 | -70.34420 | 3488 ft | 153 kts | 108° |
| 2026-04-23 13:00 | 19.69181 | -70.33349 | 3494 ft | 153 kts | 108° |
| 2026-04-23 13:01 | 19.68838 | -70.32280 | 3489 ft | 153 kts | 108° |
| 2026-04-23 13:01 | 19.68494 | -70.31213 | 3488 ft | 153 kts | 108° |
| 2026-04-23 13:01 | 19.68149 | -70.30143 | 3487 ft | 153 kts | 108° |
| 2026-04-23 13:01 | 19.67804 | -70.29075 | 3490 ft | 153 kts | 108° |
| 2026-04-23 13:02 | 19.67461 | -70.28012 | 3491 ft | 152 kts | 108° |
| 2026-04-23 13:02 | 19.67118 | -70.26952 | 3490 ft | 152 kts | 108° |
| 2026-04-23 13:02 | 19.66777 | -70.25899 | 3489 ft | 151 kts | 108° |
| 2026-04-23 13:02 | 19.66435 | -70.24839 | 3489 ft | 152 kts | 108° |
| 2026-04-23 13:03 | 19.66095 | -70.23783 | 3486 ft | 152 kts | 108° |
| 2026-04-23 13:03 | 19.65752 | -70.22724 | 3485 ft | 152 kts | 108° |
| 2026-04-23 13:03 | 19.65411 | -70.21663 | 3490 ft | 152 kts | 108° |
| 2026-04-23 13:03 | 19.65066 | -70.20599 | 3493 ft | 152 kts | 108° |
| 2026-04-23 13:04 | 19.64723 | -70.19536 | 3489 ft | 153 kts | 108° |
| 2026-04-23 13:04 | 19.64378 | -70.18471 | 3494 ft | 153 kts | 108° |
| 2026-04-23 13:04 | 19.64032 | -70.17404 | 3493 ft | 153 kts | 108° |
| 2026-04-23 13:04 | 19.63687 | -70.16334 | 3493 ft | 154 kts | 108° |
| 2026-04-23 13:05 | 19.63341 | -70.15263 | 3493 ft | 154 kts | 108° |
| 2026-04-23 13:05 | 19.62994 | -70.14191 | 3494 ft | 154 kts | 108° |
| 2026-04-23 13:05 | 19.62646 | -70.13117 | 3492 ft | 154 kts | 108° |
| 2026-04-23 13:05 | 19.62302 | -70.12055 | 3494 ft | 154 kts | 108° |
| 2026-04-23 13:06 | 19.61605 | -70.09902 | 3490 ft | 154 kts | 108° |
| 2026-04-23 13:06 | 19.61256 | -70.08826 | 3489 ft | 154 kts | 108° |
| 2026-04-23 13:06 | 19.60907 | -70.07749 | 3490 ft | 154 kts | 108° |
| 2026-04-23 13:07 | 19.60558 | -70.06673 | 3493 ft | 155 kts | 108° |
| 2026-04-23 13:07 | 19.60209 | -70.05594 | 3490 ft | 155 kts | 108° |
| 2026-04-23 13:07 | 19.59859 | -70.04516 | 3488 ft | 154 kts | 108° |
| 2026-04-23 13:07 | 19.59510 | -70.03441 | 3491 ft | 154 kts | 108° |
| 2026-04-23 13:08 | 19.59160 | -70.02363 | 3490 ft | 155 kts | 108° |
| 2026-04-23 13:08 | 19.58811 | -70.01285 | 3487 ft | 154 kts | 108° |
| 2026-04-23 13:08 | 19.58461 | -70.00207 | 3489 ft | 155 kts | 108° |
| 2026-04-23 13:08 | 19.58110 | -69.99129 | 3491 ft | 155 kts | 108° |
| 2026-04-23 13:09 | 19.57759 | -69.98044 | 3491 ft | 156 kts | 109° |
| 2026-04-23 13:09 | 19.57406 | -69.96959 | 3487 ft | 156 kts | 108° |
| 2026-04-23 13:09 | 19.57033 | -69.95882 | 3489 ft | 156 kts | 112° |
| 2026-04-23 13:09 | 19.56622 | -69.94819 | 3486 ft | 156 kts | 111° |
| 2026-04-23 13:10 | 19.56214 | -69.93752 | 3488 ft | 156 kts | 112° |
| 2026-04-23 13:10 | 19.55803 | -69.92686 | 3487 ft | 156 kts | 112° |
| 2026-04-23 13:10 | 19.55390 | -69.91619 | 3490 ft | 157 kts | 112° |
| 2026-04-23 13:10 | 19.54977 | -69.90549 | 3488 ft | 157 kts | 112° |
| 2026-04-23 13:11 | 19.54565 | -69.89479 | 3486 ft | 157 kts | 112° |
| 2026-04-23 13:11 | 19.54152 | -69.88407 | 3482 ft | 157 kts | 112° |
| 2026-04-23 13:11 | 19.53741 | -69.87340 | 3486 ft | 156 kts | 112° |
| 2026-04-23 13:11 | 19.53329 | -69.86273 | 3487 ft | 156 kts | 112° |
| 2026-04-23 13:12 | 19.52918 | -69.85207 | 3485 ft | 156 kts | 112° |
| 2026-04-23 13:12 | 19.52507 | -69.84141 | 3486 ft | 156 kts | 112° |
| 2026-04-23 13:12 | 19.52096 | -69.83075 | 3485 ft | 156 kts | 112° |
| 2026-04-23 13:12 | 19.51684 | -69.82008 | 3483 ft | 157 kts | 112° |
| 2026-04-23 13:13 | 19.51273 | -69.80944 | 3484 ft | 156 kts | 112° |
| 2026-04-23 13:13 | 19.50862 | -69.79878 | 3486 ft | 156 kts | 112° |
| 2026-04-23 13:13 | 19.50451 | -69.78811 | 3482 ft | 156 kts | 112° |
| 2026-04-23 13:13 | 19.50039 | -69.77745 | 3484 ft | 156 kts | 112° |
| 2026-04-23 13:14 | 19.49626 | -69.76678 | 3484 ft | 156 kts | 112° |
| 2026-04-23 13:14 | 19.49219 | -69.75625 | 3485 ft | 157 kts | 112° |
| 2026-04-23 13:14 | 19.48806 | -69.74554 | 3487 ft | 157 kts | 112° |
| 2026-04-23 13:14 | 19.48393 | -69.73486 | 3485 ft | 157 kts | 112° |
| 2026-04-23 13:15 | 19.47980 | -69.72417 | 3485 ft | 157 kts | 112° |
| 2026-04-23 13:15 | 19.47567 | -69.71349 | 3481 ft | 157 kts | 112° |
| 2026-04-23 13:15 | 19.47154 | -69.70280 | 3485 ft | 157 kts | 112° |
| 2026-04-23 13:15 | 19.46740 | -69.69211 | 3485 ft | 157 kts | 112° |
| 2026-04-23 13:16 | 19.46326 | -69.68142 | 3485 ft | 157 kts | 112° |
| 2026-04-23 13:16 | 19.45912 | -69.67073 | 3485 ft | 157 kts | 112° |
| 2026-04-23 13:16 | 19.45500 | -69.66005 | 3483 ft | 157 kts | 112° |
| 2026-04-23 13:16 | 19.45087 | -69.64936 | 3484 ft | 157 kts | 112° |
| 2026-04-23 13:17 | 19.44672 | -69.63867 | 3488 ft | 157 kts | 112° |
| 2026-04-23 13:17 | 19.44258 | -69.62797 | 3482 ft | 157 kts | 112° |
| 2026-04-23 13:17 | 19.43844 | -69.61730 | 3485 ft | 157 kts | 112° |
| 2026-04-23 13:17 | 19.43430 | -69.60661 | 3485 ft | 157 kts | 112° |
| 2026-04-23 13:18 | 19.43017 | -69.59593 | 3485 ft | 157 kts | 112° |
| 2026-04-23 13:18 | 19.42603 | -69.58526 | 3485 ft | 158 kts | 112° |
| 2026-04-23 13:18 | 19.42186 | -69.57449 | 3485 ft | 158 kts | 112° |
| 2026-04-23 13:18 | 19.41768 | -69.56372 | 3484 ft | 158 kts | 112° |
| 2026-04-23 13:19 | 19.41350 | -69.55297 | 3495 ft | 158 kts | 112° |
| 2026-04-23 13:19 | 19.40934 | -69.54222 | 3497 ft | 158 kts | 112° |
| 2026-04-23 13:19 | 19.40516 | -69.53144 | 3481 ft | 158 kts | 112° |
| 2026-04-23 13:19 | 19.40099 | -69.52069 | 3479 ft | 158 kts | 112° |
| 2026-04-23 13:20 | 19.39682 | -69.50994 | 3476 ft | 158 kts | 112° |
| 2026-04-23 13:20 | 19.39265 | -69.49921 | 3481 ft | 157 kts | 112° |
| 2026-04-23 13:20 | 19.38849 | -69.48850 | 3478 ft | 157 kts | 112° |
| 2026-04-23 13:20 | 19.38433 | -69.47779 | 3477 ft | 157 kts | 112° |
| 2026-04-23 13:21 | 19.38018 | -69.46709 | 3477 ft | 157 kts | 112° |
| 2026-04-23 13:21 | 19.37602 | -69.45639 | 3473 ft | 157 kts | 112° |
| 2026-04-23 13:21 | 19.37186 | -69.44569 | 3475 ft | 157 kts | 112° |
| 2026-04-23 13:21 | 19.36770 | -69.43498 | 3474 ft | 157 kts | 112° |
| 2026-04-23 13:22 | 19.36354 | -69.42429 | 3475 ft | 157 kts | 112° |
| 2026-04-23 13:22 | 19.35938 | -69.41360 | 3474 ft | 157 kts | 112° |
| 2026-04-23 13:22 | 19.35522 | -69.40288 | 3473 ft | 157 kts | 112° |
| 2026-04-23 13:22 | 19.35105 | -69.39217 | 3473 ft | 157 kts | 112° |
| 2026-04-23 13:23 | 19.34695 | -69.38162 | 3471 ft | 157 kts | 112° |
| 2026-04-23 13:23 | 19.34279 | -69.37092 | 3473 ft | 157 kts | 112° |
| 2026-04-23 13:23 | 19.33862 | -69.36021 | 3475 ft | 157 kts | 112° |
| 2026-04-23 13:23 | 19.33445 | -69.34950 | 3474 ft | 157 kts | 112° |
| 2026-04-23 13:24 | 19.33027 | -69.33879 | 3475 ft | 157 kts | 112° |
| 2026-04-23 13:24 | 19.32611 | -69.32809 | 3475 ft | 157 kts | 112° |
| 2026-04-23 13:24 | 19.32194 | -69.31738 | 3475 ft | 157 kts | 112° |
| 2026-04-23 13:24 | 19.31777 | -69.30667 | 3474 ft | 157 kts | 112° |
| 2026-04-23 13:25 | 19.31360 | -69.29596 | 3476 ft | 157 kts | 112° |
| 2026-04-23 13:25 | 19.30941 | -69.28524 | 3473 ft | 157 kts | 112° |
| 2026-04-23 13:25 | 19.30523 | -69.27453 | 3478 ft | 157 kts | 112° |
| 2026-04-23 13:25 | 19.30106 | -69.26384 | 3477 ft | 157 kts | 112° |
| 2026-04-23 13:26 | 19.29689 | -69.25312 | 3482 ft | 157 kts | 112° |
| 2026-04-23 13:26 | 19.29272 | -69.24241 | 3480 ft | 157 kts | 112° |
| 2026-04-23 13:26 | 19.28854 | -69.23170 | 3480 ft | 157 kts | 112° |
| 2026-04-23 13:26 | 19.28387 | -69.22127 | 3478 ft | 157 kts | 126° |
| 2026-04-23 13:27 | 19.27671 | -69.21255 | 3482 ft | 157 kts | 131° |
| 2026-04-23 13:27 | 19.26980 | -69.20359 | 3481 ft | 157 kts | 127° |
| 2026-04-23 13:27 | 19.26314 | -69.19442 | 3481 ft | 157 kts | 127° |
| 2026-04-23 13:27 | 19.25642 | -69.18528 | 3485 ft | 157 kts | 128° |
| 2026-04-23 13:28 | 19.24960 | -69.17619 | 3483 ft | 157 kts | 128° |
| 2026-04-23 13:28 | 19.24277 | -69.16716 | 3486 ft | 157 kts | 129° |
| 2026-04-23 13:28 | 19.23592 | -69.15813 | 3486 ft | 157 kts | 128° |
| 2026-04-23 13:28 | 19.22907 | -69.14909 | 3488 ft | 157 kts | 128° |
| 2026-04-23 13:29 | 19.22222 | -69.14004 | 3489 ft | 158 kts | 128° |
| 2026-04-23 13:29 | 19.21533 | -69.13095 | 3493 ft | 159 kts | 128° |
| 2026-04-23 13:29 | 19.20840 | -69.12180 | 3494 ft | 160 kts | 128° |
| 2026-04-23 13:29 | 19.20140 | -69.11256 | 3501 ft | 162 kts | 128° |
| 2026-04-23 13:30 | 19.19432 | -69.10320 | 3502 ft | 164 kts | 129° |
| 2026-04-23 13:30 | 19.18718 | -69.09378 | 3502 ft | 165 kts | 129° |
| 2026-04-23 13:30 | 19.18001 | -69.08434 | 3501 ft | 165 kts | 129° |
| 2026-04-23 13:30 | 19.17285 | -69.07490 | 3504 ft | 164 kts | 129° |
| 2026-04-23 13:31 | 19.16574 | -69.06551 | 3501 ft | 163 kts | 129° |
| 2026-04-23 13:31 | 19.15868 | -69.05619 | 3504 ft | 162 kts | 129° |
| 2026-04-23 13:31 | 19.15166 | -69.04694 | 3501 ft | 161 kts | 129° |
| 2026-04-23 13:31 | 19.14469 | -69.03775 | 3502 ft | 160 kts | 129° |
| 2026-04-23 13:32 | 19.13775 | -69.02861 | 3498 ft | 159 kts | 129° |
| 2026-04-23 13:32 | 19.13085 | -69.01951 | 3500 ft | 158 kts | 129° |
| 2026-04-23 13:32 | 19.12395 | -69.01042 | 3498 ft | 158 kts | 129° |
| 2026-04-23 13:32 | 19.11710 | -69.00138 | 3497 ft | 158 kts | 129° |
| 2026-04-23 13:33 | 19.11255 | -68.99540 | 3497 ft | 157 kts | 129° |
| 2026-04-23 13:33 | 19.10570 | -68.98638 | 3502 ft | 157 kts | 129° |
| 2026-04-23 13:33 | 19.09885 | -68.97737 | 3500 ft | 157 kts | 129° |
| 2026-04-23 13:33 | 19.08971 | -68.96533 | 3498 ft | 157 kts | 129° |
| 2026-04-23 13:34 | 19.08519 | -68.95937 | 3498 ft | 157 kts | 129° |
| 2026-04-23 13:34 | 19.07614 | -68.94746 | 3497 ft | 157 kts | 129° |
| 2026-04-23 13:34 | 19.06930 | -68.93848 | 3496 ft | 157 kts | 129° |
| 2026-04-23 13:34 | 19.06248 | -68.92949 | 3499 ft | 156 kts | 129° |
| 2026-04-23 13:35 | 19.05788 | -68.92343 | 3499 ft | 156 kts | 129° |
| 2026-04-23 13:35 | 19.04885 | -68.91155 | 3501 ft | 157 kts | 129° |
| 2026-04-23 13:35 | 19.04423 | -68.90548 | 3502 ft | 157 kts | 129° |
| 2026-04-23 13:35 | 19.03740 | -68.89651 | 3502 ft | 157 kts | 129° |
| 2026-04-23 13:36 | 19.03058 | -68.88753 | 3504 ft | 157 kts | 129° |
| 2026-04-23 13:36 | 19.02375 | -68.87854 | 3502 ft | 157 kts | 129° |
| 2026-04-23 13:36 | 19.01701 | -68.86969 | 3502 ft | 157 kts | 129° |
| 2026-04-23 13:36 | 19.01017 | -68.86070 | 3502 ft | 157 kts | 129° |
| 2026-04-23 13:37 | 19.00332 | -68.85171 | 3503 ft | 157 kts | 129° |
| 2026-04-23 13:37 | 18.99648 | -68.84271 | 3500 ft | 157 kts | 129° |
| 2026-04-23 13:37 | 18.98963 | -68.83371 | 3505 ft | 157 kts | 129° |
| 2026-04-23 13:37 | 18.98277 | -68.82469 | 3503 ft | 158 kts | 129° |
| 2026-04-23 13:38 | 18.97590 | -68.81568 | 3501 ft | 157 kts | 129° |
| 2026-04-23 13:38 | 18.96904 | -68.80667 | 3505 ft | 157 kts | 129° |
| 2026-04-23 13:38 | 18.96218 | -68.79766 | 3501 ft | 157 kts | 129° |
| 2026-04-23 13:38 | 18.95532 | -68.78865 | 3502 ft | 157 kts | 129° |
| 2026-04-23 13:39 | 18.94846 | -68.77966 | 3501 ft | 157 kts | 128° |
| 2026-04-23 13:39 | 18.94160 | -68.77065 | 3503 ft | 157 kts | 128° |
| 2026-04-23 13:39 | 18.93477 | -68.76167 | 3503 ft | 157 kts | 128° |
| 2026-04-23 13:39 | 18.92791 | -68.75267 | 3502 ft | 158 kts | 128° |
| 2026-04-23 13:40 | 18.92102 | -68.74363 | 3503 ft | 158 kts | 128° |
| 2026-04-23 13:40 | 18.91410 | -68.73456 | 3503 ft | 159 kts | 128° |
| 2026-04-23 13:40 | 18.90716 | -68.72545 | 3505 ft | 160 kts | 128° |
| 2026-04-23 13:40 | 18.90015 | -68.71629 | 3509 ft | 161 kts | 128° |
| 2026-04-23 13:41 | 18.89314 | -68.70710 | 3508 ft | 161 kts | 128° |
| 2026-04-23 13:41 | 18.88613 | -68.69789 | 3498 ft | 162 kts | 128° |
| 2026-04-23 13:41 | 18.87910 | -68.68866 | 3504 ft | 161 kts | 128° |
| 2026-04-23 13:41 | 18.87203 | -68.67941 | 3504 ft | 162 kts | 128° |
| 2026-04-23 13:42 | 18.86497 | -68.67015 | 3505 ft | 161 kts | 128° |
| 2026-04-23 13:42 | 18.85791 | -68.66089 | 3502 ft | 162 kts | 128° |
| 2026-04-23 13:42 | 18.85089 | -68.65169 | 3499 ft | 160 kts | 128° |
| 2026-04-23 13:42 | 18.84386 | -68.64252 | 3506 ft | 162 kts | 128° |
| 2026-04-23 13:43 | 18.83681 | -68.63328 | 3505 ft | 161 kts | 128° |
| 2026-04-23 13:43 | 18.82978 | -68.62407 | 3501 ft | 161 kts | 128° |
| 2026-04-23 13:43 | 18.82276 | -68.61486 | 3502 ft | 162 kts | 128° |
| 2026-04-23 13:43 | 18.81565 | -68.60558 | 3501 ft | 163 kts | 128° |
| 2026-04-23 13:44 | 18.80853 | -68.59627 | 3510 ft | 164 kts | 128° |
| 2026-04-23 13:44 | 18.80143 | -68.58695 | 3498 ft | 161 kts | 128° |
| 2026-04-23 13:44 | 18.79448 | -68.57783 | 3504 ft | 159 kts | 128° |
| 2026-04-23 13:44 | 18.78755 | -68.56876 | 3502 ft | 159 kts | 128° |
| 2026-04-23 13:45 | 18.78060 | -68.55969 | 3498 ft | 159 kts | 128° |
| 2026-04-23 13:45 | 18.77372 | -68.55067 | 3503 ft | 157 kts | 128° |
| 2026-04-23 13:45 | 18.76676 | -68.54162 | 3501 ft | 160 kts | 128° |
| 2026-04-23 13:45 | 18.75970 | -68.53237 | 3508 ft | 163 kts | 128° |
| 2026-04-23 13:46 | 18.75250 | -68.52299 | 3501 ft | 165 kts | 128° |
| 2026-04-23 13:46 | 18.74543 | -68.51374 | 3497 ft | 162 kts | 128° |
| 2026-04-23 13:46 | 18.73843 | -68.50454 | 3499 ft | 160 kts | 128° |
| 2026-04-23 13:46 | 18.73149 | -68.49547 | 3503 ft | 158 kts | 129° |
| 2026-04-23 13:47 | 18.72443 | -68.48627 | 3498 ft | 159 kts | 128° |
| 2026-04-23 13:47 | 18.71758 | -68.47729 | 3494 ft | 159 kts | 128° |
| 2026-04-23 13:47 | 18.71064 | -68.46827 | 3503 ft | 159 kts | 128° |
| 2026-04-23 13:47 | 18.70360 | -68.45909 | 3503 ft | 162 kts | 128° |
| 2026-04-23 13:48 | 18.69652 | -68.44981 | 3503 ft | 163 kts | 128° |
| 2026-04-23 13:48 | 18.68939 | -68.44050 | 3504 ft | 164 kts | 128° |
| 2026-04-23 13:48 | 18.68224 | -68.43119 | 3500 ft | 162 kts | 128° |
| 2026-04-23 13:48 | 18.67515 | -68.42198 | 3510 ft | 164 kts | 128° |
| 2026-04-23 13:49 | 18.66792 | -68.41248 | 3504 ft | 169 kts | 128° |
| 2026-04-23 13:49 | 18.66052 | -68.40282 | 3496 ft | 168 kts | 128° |
| 2026-04-23 13:49 | 18.65323 | -68.39333 | 3505 ft | 166 kts | 128° |
| 2026-04-23 13:49 | 18.64595 | -68.38384 | 3493 ft | 167 kts | 128° |
| 2026-04-23 13:50 | 18.63938 | -68.37381 | 3498 ft | 165 kts | 114° |
| 2026-04-23 13:50 | 18.63508 | -68.36268 | 3503 ft | 164 kts | 111° |
| 2026-04-23 13:50 | 18.63036 | -68.35159 | 3493 ft | 166 kts | 115° |
| 2026-04-23 13:50 | 18.62550 | -68.34081 | 3493 ft | 160 kts | 114° |
| 2026-04-23 13:51 | 18.62087 | -68.33020 | 3495 ft | 158 kts | 114° |
| 2026-04-23 13:51 | 18.61632 | -68.31959 | 3489 ft | 159 kts | 113° |
| 2026-04-23 13:51 | 18.61180 | -68.30902 | 3491 ft | 157 kts | 114° |
| 2026-04-23 13:51 | 18.60734 | -68.29858 | 3491 ft | 156 kts | 114° |
| 2026-04-23 13:52 | 18.60291 | -68.28822 | 3495 ft | 155 kts | 114° |
| 2026-04-23 13:52 | 18.59849 | -68.27786 | 3492 ft | 154 kts | 114° |
| 2026-04-23 13:52 | 18.59407 | -68.26756 | 3494 ft | 154 kts | 114° |
| 2026-04-23 13:52 | 18.58966 | -68.25726 | 3492 ft | 154 kts | 114° |
| 2026-04-23 13:53 | 18.58525 | -68.24695 | 3493 ft | 154 kts | 113° |
| 2026-04-23 13:53 | 18.58083 | -68.23666 | 3493 ft | 154 kts | 113° |
| 2026-04-23 13:53 | 18.57645 | -68.22642 | 3493 ft | 153 kts | 113° |
| 2026-04-23 13:53 | 18.57206 | -68.21618 | 3490 ft | 153 kts | 113° |
| 2026-04-23 13:54 | 18.56767 | -68.20593 | 3495 ft | 154 kts | 113° |
| 2026-04-23 13:54 | 18.56326 | -68.19564 | 3492 ft | 154 kts | 113° |
| 2026-04-23 13:54 | 18.55885 | -68.18535 | 3495 ft | 154 kts | 114° |
| 2026-04-23 13:54 | 18.55442 | -68.17503 | 3496 ft | 155 kts | 113° |
| 2026-04-23 13:55 | 18.54998 | -68.16467 | 3492 ft | 155 kts | 114° |
| 2026-04-23 13:55 | 18.54554 | -68.15432 | 3494 ft | 155 kts | 113° |
| 2026-04-23 13:55 | 18.54108 | -68.14393 | 3496 ft | 155 kts | 113° |
| 2026-04-23 13:55 | 18.53663 | -68.13358 | 3494 ft | 155 kts | 114° |
| 2026-04-23 13:56 | 18.53218 | -68.12323 | 3497 ft | 155 kts | 113° |
| 2026-04-23 13:56 | 18.52780 | -68.11297 | 3493 ft | 156 kts | 114° |
| 2026-04-23 13:56 | 18.52333 | -68.10258 | 3494 ft | 155 kts | 114° |
| 2026-04-23 13:56 | 18.51887 | -68.09222 | 3496 ft | 155 kts | 114° |
| 2026-04-23 13:57 | 18.51441 | -68.08182 | 3496 ft | 156 kts | 113° |
| 2026-04-23 13:57 | 18.50995 | -68.07144 | 3493 ft | 156 kts | 114° |
| 2026-04-23 13:57 | 18.50549 | -68.06103 | 3494 ft | 156 kts | 114° |
| 2026-04-23 13:57 | 18.50103 | -68.05069 | 3489 ft | 155 kts | 114° |
| 2026-04-23 13:58 | 18.49659 | -68.04036 | 3493 ft | 154 kts | 114° |
| 2026-04-23 13:58 | 18.49216 | -68.03006 | 3491 ft | 154 kts | 114° |
| 2026-04-23 13:58 | 18.48777 | -68.01981 | 3491 ft | 154 kts | 114° |
| 2026-04-23 13:58 | 18.48336 | -68.00957 | 3492 ft | 153 kts | 113° |
| 2026-04-23 13:59 | 18.47912 | -67.99928 | 3490 ft | 153 kts | 108° |
| 2026-04-23 13:59 | 18.47693 | -67.98832 | 3491 ft | 153 kts | 98° |
| 2026-04-23 13:59 | 18.47522 | -67.97729 | 3490 ft | 153 kts | 99° |
| 2026-04-23 13:59 | 18.47341 | -67.96625 | 3487 ft | 153 kts | 99° |
| 2026-04-23 14:00 | 18.47217 | -67.95894 | 3491 ft | 153 kts | 99° |
| 2026-04-23 14:00 | 18.46961 | -67.94419 | 3491 ft | 154 kts | 99° |
| 2026-04-23 14:00 | 18.46769 | -67.93309 | 3492 ft | 154 kts | 99° |
| 2026-04-23 14:00 | 18.46579 | -67.92211 | 3493 ft | 154 kts | 99° |
| 2026-04-23 14:01 | 18.46388 | -67.91097 | 3492 ft | 154 kts | 100° |
| 2026-04-23 14:01 | 18.46196 | -67.89990 | 3493 ft | 154 kts | 100° |
| 2026-04-23 14:01 | 18.46003 | -67.88881 | 3494 ft | 154 kts | 100° |
| 2026-04-23 14:01 | 18.45810 | -67.87771 | 3496 ft | 154 kts | 99° |
| 2026-04-23 14:02 | 18.45618 | -67.86659 | 3499 ft | 154 kts | 99° |
| 2026-04-23 14:02 | 18.45426 | -67.85550 | 3494 ft | 154 kts | 99° |
| 2026-04-23 14:02 | 18.45235 | -67.84450 | 3491 ft | 153 kts | 100° |
| 2026-04-23 14:02 | 18.45044 | -67.83346 | 3490 ft | 153 kts | 99° |
| 2026-04-23 14:03 | 18.44851 | -67.82243 | 3492 ft | 153 kts | 99° |
| 2026-04-23 14:03 | 18.44660 | -67.81139 | 3491 ft | 153 kts | 99° |
| 2026-04-23 14:03 | 18.44470 | -67.80038 | 3501 ft | 153 kts | 99° |
| 2026-04-23 14:03 | 18.44278 | -67.78936 | 3497 ft | 153 kts | 100° |
| 2026-04-23 14:04 | 18.44087 | -67.77833 | 3498 ft | 153 kts | 100° |
| 2026-04-23 14:04 | 18.43897 | -67.76741 | 3501 ft | 154 kts | 100° |
| 2026-04-23 14:04 | 18.43703 | -67.75627 | 3498 ft | 154 kts | 100° |
| 2026-04-23 14:04 | 18.43511 | -67.74519 | 3495 ft | 153 kts | 100° |
| 2026-04-23 14:05 | 18.43318 | -67.73415 | 3498 ft | 153 kts | 100° |
| 2026-04-23 14:05 | 18.43126 | -67.72310 | 3497 ft | 153 kts | 100° |
| 2026-04-23 14:05 | 18.42933 | -67.71205 | 3497 ft | 154 kts | 100° |
| 2026-04-23 14:05 | 18.42741 | -67.70100 | 3494 ft | 153 kts | 99° |
| 2026-04-23 14:06 | 18.42548 | -67.68994 | 3498 ft | 153 kts | 99° |
| 2026-04-23 14:06 | 18.42356 | -67.67890 | 3495 ft | 153 kts | 99° |
| 2026-04-23 14:06 | 18.42163 | -67.66787 | 3494 ft | 154 kts | 99° |
| 2026-04-23 14:06 | 18.41970 | -67.65679 | 3497 ft | 154 kts | 99° |
| 2026-04-23 14:07 | 18.41776 | -67.64566 | 3497 ft | 155 kts | 99° |
| 2026-04-23 14:07 | 18.41387 | -67.62335 | 3497 ft | 155 kts | 99° |
| 2026-04-23 14:07 | 18.41192 | -67.61217 | 3494 ft | 155 kts | 100° |
| 2026-04-23 14:08 | 18.40996 | -67.60097 | 3496 ft | 155 kts | 99° |
| 2026-04-23 14:08 | 18.40801 | -67.58982 | 3497 ft | 155 kts | 100° |
| 2026-04-23 14:08 | 18.40606 | -67.57868 | 3496 ft | 155 kts | 99° |
| 2026-04-23 14:08 | 18.40414 | -67.56771 | 3492 ft | 154 kts | 99° |
| 2026-04-23 14:09 | 18.40220 | -67.55661 | 3494 ft | 154 kts | 99° |
| 2026-04-23 14:09 | 18.40026 | -67.54554 | 3495 ft | 154 kts | 99° |
| 2026-04-23 14:09 | 18.39832 | -67.53444 | 3493 ft | 154 kts | 99° |
| 2026-04-23 14:09 | 18.39637 | -67.52333 | 3492 ft | 154 kts | 99° |
| 2026-04-23 14:10 | 18.39442 | -67.51221 | 3493 ft | 155 kts | 99° |
| 2026-04-23 14:10 | 18.39246 | -67.50105 | 3494 ft | 155 kts | 99° |
| 2026-04-23 14:10 | 18.39051 | -67.48987 | 3498 ft | 155 kts | 99° |
| 2026-04-23 14:10 | 18.38940 | -67.47861 | 3502 ft | 156 kts | 84° |
| 2026-04-23 14:11 | 18.39246 | -67.46765 | 3502 ft | 156 kts | 70° |
| 2026-04-23 14:11 | 18.39598 | -67.45686 | 3500 ft | 155 kts | 72° |
| 2026-04-23 14:11 | 18.39915 | -67.44601 | 3503 ft | 155 kts | 73° |
| 2026-04-23 14:11 | 18.40231 | -67.43515 | 3501 ft | 155 kts | 72° |
| 2026-04-23 14:12 | 18.40554 | -67.42434 | 3506 ft | 155 kts | 72° |
| 2026-04-23 14:12 | 18.40876 | -67.41351 | 3502 ft | 155 kts | 72° |
| 2026-04-23 14:12 | 18.41199 | -67.40271 | 3506 ft | 155 kts | 72° |
| 2026-04-23 14:12 | 18.41526 | -67.39191 | 3504 ft | 155 kts | 72° |
| 2026-04-23 14:13 | 18.41854 | -67.38113 | 3504 ft | 154 kts | 72° |
| 2026-04-23 14:13 | 18.42182 | -67.37037 | 3506 ft | 154 kts | 72° |
| 2026-04-23 14:13 | 18.42509 | -67.35960 | 3506 ft | 154 kts | 72° |
| 2026-04-23 14:13 | 18.42835 | -67.34891 | 3505 ft | 152 kts | 72° |
| 2026-04-23 14:14 | 18.43152 | -67.33847 | 3506 ft | 147 kts | 72° |
| 2026-04-23 14:14 | 18.43458 | -67.32837 | 3502 ft | 143 kts | 72° |
| 2026-04-23 14:14 | 18.43759 | -67.31845 | 3501 ft | 141 kts | 72° |
| 2026-04-23 14:14 | 18.44055 | -67.30870 | 3413 ft | 145 kts | 72° |
| 2026-04-23 14:15 | 18.44372 | -67.29824 | 3222 ft | 147 kts | 72° |
| 2026-04-23 14:15 | 18.44665 | -67.28859 | 3040 ft | 134 kts | 72° |
| 2026-04-23 14:15 | 18.44939 | -67.27954 | 2868 ft | 126 kts | 72° |
| 2026-04-23 14:15 | 18.45201 | -67.27091 | 2703 ft | 121 kts | 72° |
| 2026-04-23 14:16 | 18.45455 | -67.26255 | 2543 ft | 119 kts | 72° |
| 2026-04-23 14:16 | 18.45703 | -67.25435 | 2389 ft | 117 kts | 72° |
| 2026-04-23 14:16 | 18.45949 | -67.24623 | 2235 ft | 116 kts | 72° |
| 2026-04-23 14:16 | 18.46193 | -67.23817 | 2081 ft | 115 kts | 72° |
| 2026-04-23 14:17 | 18.46437 | -67.23015 | 1938 ft | 115 kts | 72° |
| 2026-04-23 14:17 | 18.46667 | -67.22256 | 1917 ft | 97 kts | 71° |
| 2026-04-23 14:17 | 18.46843 | -67.21616 | 1723 ft | 87 kts | 74° |
| 2026-04-23 14:17 | 18.47001 | -67.21021 | 1598 ft | 85 kts | 73° |
| 2026-04-23 14:18 | 18.47173 | -67.20427 | 1455 ft | 85 kts | 73° |
| 2026-04-23 14:18 | 18.47344 | -67.19825 | 1308 ft | 84 kts | 73° |
| 2026-04-23 14:18 | 18.47524 | -67.19256 | 1200 ft | 81 kts | 70° |
| 2026-04-23 14:18 | 18.47717 | -67.18700 | 1078 ft | 81 kts | 70° |
| 2026-04-23 14:19 | 18.47912 | -67.18147 | 958 ft | 80 kts | 71° |
| 2026-04-23 14:19 | 18.48093 | -67.17590 | 872 ft | 80 kts | 74° |
| 2026-04-23 14:19 | 18.48257 | -67.17036 | 787 ft | 80 kts | 73° |
| 2026-04-23 14:19 | 18.48417 | -67.16472 | 707 ft | 81 kts | 75° |
| 2026-04-23 14:20 | 18.48589 | -67.15891 | 591 ft | 85 kts | 75° |
| 2026-04-23 14:20 | 18.48767 | -67.15291 | 422 ft | 82 kts | 73° |
| 2026-04-23 14:20 | 18.48937 | -67.14737 | 351 ft | 79 kts | 73° |
| 2026-04-23 14:20 | 18.49095 | -67.14182 | 248 ft | 78 kts | 72° |
| 2026-04-23 14:21 | 18.49253 | -67.13683 | 229 ft | 63 kts | 71° |
| 2026-04-23 14:21 | 18.49369 | -67.13328 | 223 ft | 41 kts | 73° |
| 2026-04-23 14:21 | 18.49420 | -67.13154 | 221 ft | 34 kts | 72° |
| 2026-04-23 14:21 | 18.49488 | -67.12931 | 219 ft | 32 kts | 72° |
| 2026-04-23 14:22 | 18.49575 | -67.12660 | 215 ft | 23 kts | 57° |
| 2026-04-23 14:22 | 18.49655 | -67.12601 | 213 ft | 0 kts | 21° |
| 2026-04-23 14:22 | 18.49664 | -67.12598 | 213 ft | 6 kts | 20° |
| 2026-04-23 14:22 | 18.49666 | -67.12597 | 213 ft | 0 kts | 20° |
| 2026-04-23 14:23 | 18.49701 | -67.12582 | 212 ft | 11 kts | 25° |
| 2026-04-23 14:23 | 18.49785 | -67.12546 | 214 ft | 15 kts | 20° |
| 2026-04-23 14:23 | 18.49902 | -67.12503 | 214 ft | 21 kts | 20° |
| 2026-04-23 14:24 | 18.50022 | -67.12457 | 211 ft | 10 kts | 25° |
| 2026-04-23 14:24 | 18.50047 | -67.12447 | 210 ft | 1 kts | 360° |
| 2026-04-23 14:38 | 18.50057 | -67.12453 | 215 ft | 2 kts | 288° |
| 2026-04-23 14:38 | 18.50031 | -67.12465 | 213 ft | 9 kts | 177° |
| 2026-04-23 14:38 | 18.49944 | -67.12488 | 211 ft | 17 kts | 200° |
| 2026-04-23 14:39 | 18.49852 | -67.12529 | 212 ft | 7 kts | 200° |
| 2026-04-23 14:39 | 18.49784 | -67.12545 | 212 ft | 14 kts | 199° |
| 2026-04-23 14:39 | 18.49703 | -67.12633 | 215 ft | 21 kts | 250° |
| 2026-04-23 14:39 | 18.49648 | -67.12795 | 216 ft | 26 kts | 252° |
| 2026-04-23 14:40 | 18.49587 | -67.12988 | 219 ft | 30 kts | 252° |
| 2026-04-23 14:40 | 18.49520 | -67.13205 | 221 ft | 33 kts | 253° |
| 2026-04-23 14:40 | 18.49453 | -67.13443 | 224 ft | 35 kts | 253° |
| 2026-04-23 14:40 | 18.49379 | -67.13690 | 227 ft | 36 kts | 252° |
| 2026-04-23 14:41 | 18.49299 | -67.13944 | 230 ft | 37 kts | 251° |
| 2026-04-23 14:41 | 18.49220 | -67.14201 | 235 ft | 37 kts | 252° |
| 2026-04-23 14:41 | 18.49194 | -67.14285 | 236 ft | 37 kts | 252° |
| 2026-04-23 14:41 | 18.49081 | -67.14565 | 242 ft | 0 kts | 192° |
| 2026-04-23 14:42 | 18.49071 | -67.14565 | 242 ft | 4 kts | 169° |
| 2026-04-23 14:42 | 18.49021 | -67.14540 | 242 ft | 12 kts | 128° |
| 2026-04-23 14:42 | 18.49021 | -67.14478 | 241 ft | 0 kts | 70° |
| 2026-04-23 14:43 | 18.49025 | -67.14463 | 241 ft | 7 kts | 75° |
| 2026-04-23 14:43 | 18.49078 | -67.14281 | 237 ft | 58 kts | 72° |
| 2026-04-23 14:43 | 18.49248 | -67.13732 | 331 ft | 90 kts | 72° |
| 2026-04-23 14:44 | 18.49410 | -67.13055 | 434 ft | 108 kts | 96° |
| 2026-04-23 14:44 | 18.49166 | -67.12302 | 627 ft | 106 kts | 98° |
| 2026-04-23 14:44 | 18.49125 | -67.11544 | 874 ft | 103 kts | 96° |
| 2026-04-23 14:44 | 18.49053 | -67.10821 | 1309 ft | 96 kts | 93° |
| 2026-04-23 14:45 | 18.49007 | -67.10126 | 1744 ft | 95 kts | 91° |
| 2026-04-23 14:45 | 18.48978 | -67.09425 | 2232 ft | 95 kts | 90° |
| 2026-04-23 14:45 | 18.48962 | -67.08698 | 2597 ft | 112 kts | 90° |
| 2026-04-23 14:45 | 18.48950 | -67.07771 | 2614 ft | 136 kts | 90° |
| 2026-04-23 14:46 | 18.48933 | -67.06702 | 2598 ft | 152 kts | 91° |
| 2026-04-23 14:46 | 18.48908 | -67.05552 | 2608 ft | 162 kts | 89° |
| 2026-04-23 14:46 | 18.48885 | -67.04341 | 2604 ft | 166 kts | 91° |
| 2026-04-23 14:46 | 18.48852 | -67.03173 | 2655 ft | 152 kts | 91° |
| 2026-04-23 14:47 | 18.48827 | -67.02137 | 3047 ft | 131 kts | 91° |
| 2026-04-23 14:47 | 18.48828 | -67.01250 | 3476 ft | 119 kts | 89° |
| 2026-04-23 14:47 | 18.48836 | -67.00285 | 3503 ft | 144 kts | 89° |
| 2026-04-23 14:47 | 18.48840 | -66.99184 | 3507 ft | 155 kts | 90° |
| 2026-04-23 14:48 | 18.48829 | -66.98019 | 3500 ft | 162 kts | 90° |
| 2026-04-23 14:48 | 18.48814 | -66.96841 | 3474 ft | 158 kts | 91° |
| 2026-04-23 14:48 | 18.48789 | -66.95698 | 3473 ft | 155 kts | 91° |
| 2026-04-23 14:48 | 18.48773 | -66.94555 | 3488 ft | 158 kts | 90° |
| 2026-04-23 14:49 | 18.48760 | -66.93390 | 3495 ft | 160 kts | 90° |
| 2026-04-23 14:49 | 18.48753 | -66.92211 | 3478 ft | 159 kts | 90° |
| 2026-04-23 14:49 | 18.48736 | -66.91064 | 3475 ft | 155 kts | 91° |
| 2026-04-23 14:49 | 18.48718 | -66.89956 | 3472 ft | 152 kts | 91° |
| 2026-04-23 14:50 | 18.48703 | -66.88853 | 3472 ft | 150 kts | 90° |
| 2026-04-23 14:50 | 18.48698 | -66.87755 | 3488 ft | 152 kts | 90° |
| 2026-04-23 14:50 | 18.48675 | -66.86620 | 3492 ft | 158 kts | 91° |
| 2026-04-23 14:50 | 18.48654 | -66.85450 | 3490 ft | 161 kts | 90° |
| 2026-04-23 14:51 | 18.48615 | -66.84257 | 3492 ft | 165 kts | 95° |
| 2026-04-23 14:51 | 18.48475 | -66.83057 | 3492 ft | 165 kts | 97° |
| 2026-04-23 14:51 | 18.48328 | -66.81852 | 3487 ft | 166 kts | 97° |
| 2026-04-23 14:51 | 18.48187 | -66.80651 | 3490 ft | 165 kts | 97° |
| 2026-04-23 14:52 | 18.48047 | -66.79456 | 3485 ft | 164 kts | 97° |
| 2026-04-23 14:52 | 18.47910 | -66.78269 | 3485 ft | 162 kts | 97° |
| 2026-04-23 14:52 | 18.47772 | -66.77090 | 3488 ft | 162 kts | 97° |
| 2026-04-23 14:52 | 18.47636 | -66.75913 | 3487 ft | 161 kts | 97° |
| 2026-04-23 14:53 | 18.47497 | -66.74734 | 3487 ft | 164 kts | 97° |
| 2026-04-23 14:53 | 18.47357 | -66.73540 | 3489 ft | 165 kts | 96° |
| 2026-04-23 14:53 | 18.47217 | -66.72337 | 3489 ft | 166 kts | 97° |
| 2026-04-23 14:53 | 18.47076 | -66.71127 | 3487 ft | 167 kts | 97° |
| 2026-04-23 14:54 | 18.46935 | -66.69928 | 3491 ft | 164 kts | 97° |
| 2026-04-23 14:54 | 18.46792 | -66.68726 | 3496 ft | 167 kts | 97° |
| 2026-04-23 14:54 | 18.46650 | -66.67527 | 3480 ft | 161 kts | 97° |
| 2026-04-23 14:54 | 18.46516 | -66.66381 | 3478 ft | 155 kts | 97° |
| 2026-04-23 14:55 | 18.46386 | -66.65270 | 3480 ft | 152 kts | 97° |
| 2026-04-23 14:55 | 18.46256 | -66.64171 | 3475 ft | 150 kts | 97° |
| 2026-04-23 14:55 | 18.46129 | -66.63090 | 3483 ft | 149 kts | 97° |
| 2026-04-23 14:55 | 18.46000 | -66.62002 | 3491 ft | 152 kts | 97° |
| 2026-04-23 14:56 | 18.45868 | -66.60870 | 3485 ft | 158 kts | 97° |
| 2026-04-23 14:56 | 18.45739 | -66.59733 | 3489 ft | 160 kts | 97° |
| 2026-04-23 14:56 | 18.45599 | -66.58575 | 3477 ft | 157 kts | 97° |
| 2026-04-23 14:56 | 18.45460 | -66.57444 | 3482 ft | 156 kts | 97° |
| 2026-04-23 14:57 | 18.45327 | -66.56308 | 3479 ft | 157 kts | 96° |
| 2026-04-23 14:57 | 18.45197 | -66.55180 | 3472 ft | 153 kts | 97° |
| 2026-04-23 14:57 | 18.45070 | -66.54080 | 3489 ft | 152 kts | 97° |
| 2026-04-23 14:57 | 18.44934 | -66.52963 | 3481 ft | 155 kts | 97° |
| 2026-04-23 14:58 | 18.44801 | -66.51845 | 3478 ft | 154 kts | 97° |
| 2026-04-23 14:58 | 18.44667 | -66.50728 | 3482 ft | 154 kts | 97° |
| 2026-04-23 14:58 | 18.44538 | -66.49617 | 3485 ft | 152 kts | 96° |
| 2026-04-23 14:58 | 18.44410 | -66.48509 | 3475 ft | 152 kts | 97° |
| 2026-04-23 14:59 | 18.44278 | -66.47420 | 3472 ft | 148 kts | 97° |
| 2026-04-23 14:59 | 18.44148 | -66.46346 | 3482 ft | 150 kts | 97° |
| 2026-04-23 14:59 | 18.44018 | -66.45250 | 3483 ft | 152 kts | 97° |
| 2026-04-23 14:59 | 18.43889 | -66.44140 | 3489 ft | 155 kts | 97° |
| 2026-04-23 15:00 | 18.43755 | -66.43022 | 3478 ft | 152 kts | 97° |
| 2026-04-23 15:00 | 18.43669 | -66.42299 | 3477 ft | 149 kts | 97° |
| 2026-04-23 15:00 | 18.43498 | -66.40849 | 3487 ft | 152 kts | 97° |